KAWO/AWO METAR and TAF weather

Enter ICAO airport designator
Station Type Date Time Source
KAWO METAR 2021/01/16 03:21 UTC NOAA

KAWO 160321Z AUTO 00000KT 1/2SM FG BKN005 BKN027 03/03 A3046 RMK AO2


Station Type Date Time Source
KAWO Decoded METAR 2021/01/16 03:21 UTC NOAA

Arlington Municipal, WA, United States (KAWO) 48-10N 122-10W
Jan 15, 2021 - 10:21 PM EST / 2021.01.16 0321 UTC
Wind: Calm:0
Visibility: 1/2 mile(s):0
Sky conditions: mostly cloudy
Weather: fog
Temperature: 37 F (3 C)
Dew Point: 37 F (3 C)
Relative Humidity: 100%
Pressure (altimeter): 30.46 in. Hg (1031 hPa)
ob: KAWO 160321Z AUTO 00000KT 1/2SM FG BKN005 BKN027 03/03 A3046 RMK AO2
cycle: 3

Station Type Date Time Source
KAWO TAF UTC NOAA

Error!

Example: see airport list